sensor_id;sensor_type;location;lat;lon;timestamp;temperature;humidity
62912;DHT22;49111;51.028;4.218;2022-12-16T06:50:24;-0.10;99.90
62912;DHT22;49111;51.028;4.218;2022-12-16T06:53:09;-0.10;99.90
62912;DHT22;49111;51.028;4.218;2022-12-16T06:55:53;-0.10;99.90
62912;DHT22;49111;51.028;4.218;2022-12-16T06:58:37;-0.20;99.90
62912;DHT22;49111;51.028;4.218;2022-12-16T07:01:21;-0.20;99.90
62912;DHT22;49111;51.028;4.218;2022-12-16T07:04:05;-0.10;99.90
62912;DHT22;49111;51.028;4.218;2022-12-16T07:06:50;-0.20;99.90
62912;DHT22;49111;51.028;4.218;2022-12-16T07:09:34;-0.20;99.90
62912;DHT22;49111;51.028;4.218;2022-12-16T07:12:18;-0.30;99.90
62912;DHT22;49111;51.028;4.218;2022-12-16T07:15:03;-0.30;99.90
62912;DHT22;49111;51.028;4.218;2022-12-16T07:17:47;-0.30;99.90
62912;DHT22;49111;51.028;4.218;2022-12-16T07:20:31;0.30;99.90
62912;DHT22;49111;51.028;4.218;2022-12-16T07:23:16;-0.30;99.90
62912;DHT22;49111;51.028;4.218;2022-12-16T07:26:00;-0.30;99.90
62912;DHT22;49111;51.028;4.218;2022-12-16T07:28:44;-0.30;99.90
62912;DHT22;49111;51.028;4.218;2022-12-16T07:31:28;-0.40;99.90
62912;DHT22;49111;51.028;4.218;2022-12-16T07:34:12;-0.50;99.90
62912;DHT22;49111;51.028;4.218;2022-12-16T07:36:56;-0.70;99.90
62912;DHT22;49111;51.028;4.218;2022-12-16T07:39:41;-0.70;99.90
62912;DHT22;49111;51.028;4.218;2022-12-16T07:42:26;-0.20;99.90
62912;DHT22;49111;51.028;4.218;2022-12-16T07:45:10;-0.90;99.90
62912;DHT22;49111;51.028;4.218;2022-12-16T07:47:55;-0.90;99.90
62912;DHT22;49111;51.028;4.218;2022-12-16T07:50:39;-0.80;99.90
62912;DHT22;49111;51.028;4.218;2022-12-16T07:53:24;-0.80;99.90
62912;DHT22;49111;51.028;4.218;2022-12-16T07:56:09;-0.70;99.90
62912;DHT22;49111;51.028;4.218;2022-12-16T07:58:53;-0.70;99.90
62912;DHT22;49111;51.028;4.218;2022-12-16T08:01:38;-0.60;99.90
62912;DHT22;49111;51.028;4.218;2022-12-16T08:04:22;-0.60;99.90
62912;DHT22;49111;51.028;4.218;2022-12-16T08:07:06;-0.60;99.90
62912;DHT22;49111;51.028;4.218;2022-12-16T08:09:50;-0.60;99.90
62912;DHT22;49111;51.028;4.218;2022-12-16T08:12:34;-0.50;99.90
62912;DHT22;49111;51.028;4.218;2022-12-16T08:15:19;-0.50;99.90
62912;DHT22;49111;51.028;4.218;2022-12-16T08:18:03;-0.40;99.90
62912;DHT22;49111;51.028;4.218;2022-12-16T08:20:47;-0.40;99.90
62912;DHT22;49111;51.028;4.218;2022-12-16T08:23:31;-0.40;99.90
62912;DHT22;49111;51.028;4.218;2022-12-16T08:26:15;-0.40;99.90
62912;DHT22;49111;51.028;4.218;2022-12-16T08:29:00;-0.40;99.90
62912;DHT22;49111;51.028;4.218;2022-12-16T08:31:44;-0.40;99.90
62912;DHT22;49111;51.028;4.218;2022-12-16T08:34:28;-0.40;99.90
62912;DHT22;49111;51.028;4.218;2022-12-16T08:37:13;-0.40;99.90
62912;DHT22;49111;51.028;4.218;2022-12-16T08:39:57;-0.40;99.90
62912;DHT22;49111;51.028;4.218;2022-12-16T08:42:41;-0.30;99.90
62912;DHT22;49111;51.028;4.218;2022-12-16T08:45:25;-0.30;99.90
62912;DHT22;49111;51.028;4.218;2022-12-16T08:48:10;-0.20;99.90
62912;DHT22;49111;51.028;4.218;2022-12-16T08:50:54;0.00;99.90
62912;DHT22;49111;51.028;4.218;2022-12-16T08:53:39;-0.10;99.90
62912;DHT22;49111;51.028;4.218;2022-12-16T08:56:23;-0.10;99.90
62912;DHT22;49111;51.028;4.218;2022-12-16T08:59:08;-0.10;99.90
62912;DHT22;49111;51.028;4.218;2022-12-16T09:01:53;-0.10;99.90
62912;DHT22;49111;51.028;4.218;2022-12-16T09:04:39;-0.10;99.90
62912;DHT22;49111;51.028;4.218;2022-12-16T09:07:23;0.00;99.90
62912;DHT22;49111;51.028;4.218;2022-12-16T09:10:26;0.00;99.90
62912;DHT22;49111;51.028;4.218;2022-12-16T09:13:12;0.10;99.90
62912;DHT22;49111;51.028;4.218;2022-12-16T09:15:57;0.10;99.90
62912;DHT22;49111;51.028;4.218;2022-12-16T09:18:41;0.10;99.90
62912;DHT22;49111;51.028;4.218;2022-12-16T09:21:26;0.20;99.90
62912;DHT22;49111;51.028;4.218;2022-12-16T09:24:10;0.20;99.90
62912;DHT22;49111;51.028;4.218;2022-12-16T09:27:05;0.20;99.90
62912;DHT22;49111;51.028;4.218;2022-12-16T09:29:50;0.30;99.90
62912;DHT22;49111;51.028;4.218;2022-12-16T09:32:34;0.40;99.90
62912;DHT22;49111;51.028;4.218;2022-12-16T09:35:23;0.40;99.90
62912;DHT22;49111;51.028;4.218;2022-12-16T09:38:08;0.40;99.90
62912;DHT22;49111;51.028;4.218;2022-12-16T09:40:52;0.50;99.90
62912;DHT22;49111;51.028;4.218;2022-12-16T09:46:49;0.60;99.90
62912;DHT22;49111;51.028;4.218;2022-12-16T09:49:55;0.70;99.90
62912;DHT22;49111;51.028;4.218;2022-12-16T09:52:41;0.70;99.90
62912;DHT22;49111;51.028;4.218;2022-12-16T09:55:37;0.80;99.90
62912;DHT22;49111;51.028;4.218;2022-12-16T09:58:25;0.80;99.90
62912;DHT22;49111;51.028;4.218;2022-12-16T10:01:11;1.80;99.90
62912;DHT22;49111;51.028;4.218;2022-12-16T10:03:57;1.00;99.90
62912;DHT22;49111;51.028;4.218;2022-12-16T10:06:47;1.00;99.90
62912;DHT22;49111;51.028;4.218;2022-12-16T10:13:39;1.10;99.90
62912;DHT22;49111;51.028;4.218;2022-12-16T10:16:18;1.30;99.90
62912;DHT22;49111;51.028;4.218;2022-12-16T10:22:19;1.40;99.90
62912;DHT22;49111;51.028;4.218;2022-12-16T10:28:09;1.70;99.90
62912;DHT22;49111;51.028;4.218;2022-12-16T10:30:57;2.00;99.90
62912;DHT22;49111;51.028;4.218;2022-12-16T10:33:46;2.60;99.90
62912;DHT22;49111;51.028;4.218;2022-12-16T10:36:35;2.30;99.90
62912;DHT22;49111;51.028;4.218;2022-12-16T10:39:35;2.40;99.90
62912;DHT22;49111;51.028;4.218;2022-12-16T10:42:29;2.50;99.90
62912;DHT22;49111;51.028;4.218;2022-12-16T10:48:09;3.60;99.90
62912;DHT22;49111;51.028;4.218;2022-12-16T10:50:54;2.60;99.90
62912;DHT22;49111;51.028;4.218;2022-12-16T10:53:38;2.60;99.90
62912;DHT22;49111;51.028;4.218;2022-12-16T10:56:46;2.60;99.90
62912;DHT22;49111;51.028;4.218;2022-12-16T10:59:38;2.60;99.90
62912;DHT22;49111;51.028;4.218;2022-12-16T11:02:43;2.70;99.90
62912;DHT22;49111;51.028;4.218;2022-12-16T11:05:32;2.70;99.90
62912;DHT22;49111;51.028;4.218;2022-12-16T11:08:32;2.80;99.90
62912;DHT22;49111;51.028;4.218;2022-12-16T11:11:26;2.70;99.90
62912;DHT22;49111;51.028;4.218;2022-12-16T11:14:28;2.70;99.90
62912;DHT22;49111;51.028;4.218;2022-12-16T11:17:24;2.70;99.90
62912;DHT22;49111;51.028;4.218;2022-12-16T11:23:19;2.80;99.90
62912;DHT22;49111;51.028;4.218;2022-12-16T11:26:13;2.90;99.90
62912;DHT22;49111;51.028;4.218;2022-12-16T11:29:17;3.00;99.90
62912;DHT22;49111;51.028;4.218;2022-12-16T11:32:24;3.10;99.90
62912;DHT22;49111;51.028;4.218;2022-12-16T11:35:12;3.10;99.90
62912;DHT22;49111;51.028;4.218;2022-12-16T11:38:00;3.10;99.90
62912;DHT22;49111;51.028;4.218;2022-12-16T11:40:44;3.20;99.90
62912;DHT22;49111;51.028;4.218;2022-12-16T11:43:29;3.40;99.90
62912;DHT22;49111;51.028;4.218;2022-12-16T11:46:24;3.50;99.90
62912;DHT22;49111;51.028;4.218;2022-12-16T11:49:29;3.50;99.90
62912;DHT22;49111;51.028;4.218;2022-12-16T11:52:16;3.60;99.90
62912;DHT22;49111;51.028;4.218;2022-12-16T12:01:30;3.70;99.90
62912;DHT22;49111;51.028;4.218;2022-12-16T12:04:15;3.70;99.90
62912;DHT22;49111;51.028;4.218;2022-12-16T12:16:24;4.10;99.90
62912;DHT22;49111;51.028;4.218;2022-12-16T12:19:19;4.10;99.90
62912;DHT22;49111;51.028;4.218;2022-12-16T12:22:08;4.30;99.90
62912;DHT22;49111;51.028;4.218;2022-12-16T12:35:11;4.50;99.90
62912;DHT22;49111;51.028;4.218;2022-12-16T12:37:41;4.50;99.90
62912;DHT22;49111;51.028;4.218;2022-12-16T12:55:41;5.20;99.90
62912;DHT22;49111;51.028;4.218;2022-12-16T12:58:29;4.80;99.90
62912;DHT22;49111;51.028;4.218;2022-12-16T13:01:19;4.80;99.90
62912;DHT22;49111;51.028;4.218;2022-12-16T13:04:19;4.80;99.90
62912;DHT22;49111;51.028;4.218;2022-12-16T13:07:04;4.90;99.90
62912;DHT22;49111;51.028;4.218;2022-12-16T13:16:05;5.00;99.90
62912;DHT22;49111;51.028;4.218;2022-12-16T13:19:38;5.00;99.90
62912;DHT22;49111;51.028;4.218;2022-12-16T13:25:31;5.10;99.90
62912;DHT22;49111;51.028;4.218;2022-12-16T13:31:21;5.10;99.90
62912;DHT22;49111;51.028;4.218;2022-12-16T13:34:26;5.10;99.90
62912;DHT22;49111;51.028;4.218;2022-12-16T13:37:26;5.10;99.90
62912;DHT22;49111;51.028;4.218;2022-12-16T13:40:20;5.10;99.90
62912;DHT22;49111;51.028;4.218;2022-12-16T13:43:04;5.10;99.90
62912;DHT22;49111;51.028;4.218;2022-12-16T13:48:44;5.20;99.90
62912;DHT22;49111;51.028;4.218;2022-12-16T13:54:43;5.30;99.90
62912;DHT22;49111;51.028;4.218;2022-12-16T13:57:29;5.10;99.90
62912;DHT22;49111;51.028;4.218;2022-12-16T14:00:21;5.10;99.90
62912;DHT22;49111;51.028;4.218;2022-12-16T14:03:32;5.10;99.90
62912;DHT22;49111;51.028;4.218;2022-12-16T14:06:23;5.10;99.90
62912;DHT22;49111;51.028;4.218;2022-12-16T14:09:37;5.10;99.90
62912;DHT22;49111;51.028;4.218;2022-12-16T14:12:52;5.10;99.90
62912;DHT22;49111;51.028;4.218;2022-12-16T14:18:43;5.10;99.90
62912;DHT22;49111;51.028;4.218;2022-12-16T14:21:38;5.00;99.90
62912;DHT22;49111;51.028;4.218;2022-12-16T14:24:26;5.00;99.90
62912;DHT22;49111;51.028;4.218;2022-12-16T14:27:19;5.00;99.90
62912;DHT22;49111;51.028;4.218;2022-12-16T14:30:19;5.00;99.90
62912;DHT22;49111;51.028;4.218;2022-12-16T14:33:25;5.00;99.90
62912;DHT22;49111;51.028;4.218;2022-12-16T14:36:37;5.00;99.90
62912;DHT22;49111;51.028;4.218;2022-12-16T14:39:29;4.90;99.90
62912;DHT22;49111;51.028;4.218;2022-12-16T14:42:28;4.90;99.90
62912;DHT22;49111;51.028;4.218;2022-12-16T14:48:33;4.80;99.90
62912;DHT22;49111;51.028;4.218;2022-12-16T14:51:29;4.70;99.90
62912;DHT22;49111;51.028;4.218;2022-12-16T14:54:28;4.60;99.90
62912;DHT22;49111;51.028;4.218;2022-12-16T15:03:01;4.40;99.90
62912;DHT22;49111;51.028;4.218;2022-12-16T15:05:48;4.30;99.90
62912;DHT22;49111;51.028;4.218;2022-12-16T15:08:35;4.30;99.90
62912;DHT22;49111;51.028;4.218;2022-12-16T15:11:22;4.20;99.90
62912;DHT22;49111;51.028;4.218;2022-12-16T15:14:10;4.20;99.90
62912;DHT22;49111;51.028;4.218;2022-12-16T15:16:56;4.10;99.90
62912;DHT22;49111;51.028;4.218;2022-12-16T15:19:47;4.10;99.90
62912;DHT22;49111;51.028;4.218;2022-12-16T15:22:34;4.00;99.90
62912;DHT22;49111;51.028;4.218;2022-12-16T15:25:23;3.90;99.90
62912;DHT22;49111;51.028;4.218;2022-12-16T15:28:44;3.90;99.90
62912;DHT22;49111;51.028;4.218;2022-12-16T15:31:33;3.80;99.90
62912;DHT22;49111;51.028;4.218;2022-12-16T15:34:42;3.70;99.90
62912;DHT22;49111;51.028;4.218;2022-12-16T15:37:38;3.70;99.90
62912;DHT22;49111;51.028;4.218;2022-12-16T15:40:30;3.60;99.90
62912;DHT22;49111;51.028;4.218;2022-12-16T15:43:27;3.70;99.90
62912;DHT22;49111;51.028;4.218;2022-12-16T15:46:28;3.50;99.90
62912;DHT22;49111;51.028;4.218;2022-12-16T15:49:21;3.40;99.90
62912;DHT22;49111;51.028;4.218;2022-12-16T15:58:33;3.20;99.90
62912;DHT22;49111;51.028;4.218;2022-12-16T16:01:25;3.20;99.90
62912;DHT22;49111;51.028;4.218;2022-12-16T16:04:25;3.10;99.90
62912;DHT22;49111;51.028;4.218;2022-12-16T16:07:21;3.10;99.90
62912;DHT22;49111;51.028;4.218;2022-12-16T16:10:22;3.00;99.90
62912;DHT22;49111;51.028;4.218;2022-12-16T16:13:10;2.90;99.90
62912;DHT22;49111;51.028;4.218;2022-12-16T16:15:55;2.90;99.90
62912;DHT22;49111;51.028;4.218;2022-12-16T16:18:40;2.80;99.90
62912;DHT22;49111;51.028;4.218;2022-12-16T16:21:27;2.80;99.90
62912;DHT22;49111;51.028;4.218;2022-12-16T16:24:12;2.70;99.90
62912;DHT22;49111;51.028;4.218;2022-12-16T16:26:59;2.70;99.90
62912;DHT22;49111;51.028;4.218;2022-12-16T16:29:44;2.60;99.90
62912;DHT22;49111;51.028;4.218;2022-12-16T16:32:28;2.60;99.90
62912;DHT22;49111;51.028;4.218;2022-12-16T16:35:12;2.50;99.90
62912;DHT22;49111;51.028;4.218;2022-12-16T16:37:57;2.50;99.90
62912;DHT22;49111;51.028;4.218;2022-12-16T16:40:42;2.50;99.90
62912;DHT22;49111;51.028;4.218;2022-12-16T16:43:27;2.60;99.90
62912;DHT22;49111;51.028;4.218;2022-12-16T16:49:23;2.50;99.90
62912;DHT22;49111;51.028;4.218;2022-12-16T16:52:14;2.40;99.90
62912;DHT22;49111;51.028;4.218;2022-12-16T16:54:58;2.30;99.90
62912;DHT22;49111;51.028;4.218;2022-12-16T16:57:42;2.40;99.90
62912;DHT22;49111;51.028;4.218;2022-12-16T17:00:27;2.30;99.90
62912;DHT22;49111;51.028;4.218;2022-12-16T17:03:11;2.20;99.90
62912;DHT22;49111;51.028;4.218;2022-12-16T17:05:56;2.20;99.90
62912;DHT22;49111;51.028;4.218;2022-12-16T17:08:40;2.10;99.90
62912;DHT22;49111;51.028;4.218;2022-12-16T17:11:25;2.10;99.90
62912;DHT22;49111;51.028;4.218;2022-12-16T17:14:11;2.00;99.90
62912;DHT22;49111;51.028;4.218;2022-12-16T17:16:57;2.00;99.90
62912;DHT22;49111;51.028;4.218;2022-12-16T17:19:41;2.00;99.90
62912;DHT22;49111;51.028;4.218;2022-12-16T17:22:42;1.90;99.90
62912;DHT22;49111;51.028;4.218;2022-12-16T17:25:40;1.90;99.90
62912;DHT22;49111;51.028;4.218;2022-12-16T17:28:25;1.80;99.90
62912;DHT22;49111;51.028;4.218;2022-12-16T17:31:09;1.80;99.90
62912;DHT22;49111;51.028;4.218;2022-12-16T17:33:54;1.70;99.90
62912;DHT22;49111;51.028;4.218;2022-12-16T17:36:52;1.70;99.90
62912;DHT22;49111;51.028;4.218;2022-12-16T17:39:37;1.60;99.90
62912;DHT22;49111;51.028;4.218;2022-12-16T17:42:20;1.60;99.90
62912;DHT22;49111;51.028;4.218;2022-12-16T17:45:05;1.60;99.90
62912;DHT22;49111;51.028;4.218;2022-12-16T17:47:49;1.60;99.90
62912;DHT22;49111;51.028;4.218;2022-12-16T17:50:34;1.60;99.90
62912;DHT22;49111;51.028;4.218;2022-12-16T17:53:18;1.50;99.90
62912;DHT22;49111;51.028;4.218;2022-12-16T17:56:04;1.50;99.90
62912;DHT22;49111;51.028;4.218;2022-12-16T17:58:48;2.30;99.90
62912;DHT22;49111;51.028;4.218;2022-12-16T18:01:32;1.50;99.90
62912;DHT22;49111;51.028;4.218;2022-12-16T18:04:16;1.60;99.90
62912;DHT22;49111;51.028;4.218;2022-12-16T18:07:01;1.50;99.90
62912;DHT22;49111;51.028;4.218;2022-12-16T18:09:45;1.40;99.90
62912;DHT22;49111;51.028;4.218;2022-12-16T18:12:30;1.50;99.90
62912;DHT22;49111;51.028;4.218;2022-12-16T18:15:15;1.40;99.90
62912;DHT22;49111;51.028;4.218;2022-12-16T18:17:59;1.40;99.90
62912;DHT22;49111;51.028;4.218;2022-12-16T18:20:44;1.40;99.90
62912;DHT22;49111;51.028;4.218;2022-12-16T18:23:29;1.20;99.90
62912;DHT22;49111;51.028;4.218;2022-12-16T18:26:14;1.20;99.90
62912;DHT22;49111;51.028;4.218;2022-12-16T18:28:59;1.20;99.90
62912;DHT22;49111;51.028;4.218;2022-12-16T18:31:43;1.20;99.90
62912;DHT22;49111;51.028;4.218;2022-12-16T18:34:28;1.20;99.90
62912;DHT22;49111;51.028;4.218;2022-12-16T18:37:12;1.20;99.90
62912;DHT22;49111;51.028;4.218;2022-12-16T18:39:57;1.20;99.90
62912;DHT22;49111;51.028;4.218;2022-12-16T18:42:42;1.20;99.90
62912;DHT22;49111;51.028;4.218;2022-12-16T18:45:26;1.10;99.90
62912;DHT22;49111;51.028;4.218;2022-12-16T18:48:10;1.10;99.90
62912;DHT22;49111;51.028;4.218;2022-12-16T18:50:58;1.10;99.90
62912;DHT22;49111;51.028;4.218;2022-12-16T18:53:43;1.10;99.90
62912;DHT22;49111;51.028;4.218;2022-12-16T18:56:28;1.10;99.90
62912;DHT22;49111;51.028;4.218;2022-12-16T18:59:12;1.10;99.90
62912;DHT22;49111;51.028;4.218;2022-12-16T19:01:56;1.00;99.90
62912;DHT22;49111;51.028;4.218;2022-12-16T19:04:41;1.00;99.90
62912;DHT22;49111;51.028;4.218;2022-12-16T19:07:25;1.00;99.90
62912;DHT22;49111;51.028;4.218;2022-12-16T19:10:10;1.00;99.90
62912;DHT22;49111;51.028;4.218;2022-12-16T19:12:56;0.90;99.90
62912;DHT22;49111;51.028;4.218;2022-12-16T19:15:40;0.90;99.90
62912;DHT22;49111;51.028;4.218;2022-12-16T19:18:24;0.90;99.90
62912;DHT22;49111;51.028;4.218;2022-12-16T19:21:09;0.90;99.90
62912;DHT22;49111;51.028;4.218;2022-12-16T19:23:53;0.90;99.90
62912;DHT22;49111;51.028;4.218;2022-12-16T19:26:38;0.90;99.90
